Time;durP1;ratioP1;P1;durP2;ratioP2;P2;SDS_P1;SDS_P2;PMS_P1;PMS_P2;Temp;Humidity;BMP_temperature;BMP_pressure;BME280_temperature;BME280_humidity;BME280_pressure;Samples;Min_cycle;Max_cycle;Signal;HPM_P1;HPM_P2
2022/12/02 00:01:31;;;;;;;51.53;20.85;;;;;;;4.34;85.15;102524.53;5092690;28;20339;-78
2022/12/02 00:03:56;;;;;;;53.03;21.37;;;;;;;4.32;84.83;102518.47;5094782;28;20053;-78
2022/12/02 00:06:27;;;;;;;54.67;21.10;;;;;;;4.29;84.55;102514.94;5087041;28;20024;-78
2022/12/02 00:08:53;;;;;;;52.27;21.03;;;;;;;4.25;84.61;102514.84;5082798;28;20078;-78
2022/12/02 00:11:27;;;;;;;55.13;21.10;;;;;;;4.24;84.45;102509.69;5076170;28;20051;-78
2022/12/02 00:13:55;;;;;;;49.45;20.27;;;;;;;4.21;84.76;102512.16;5076246;28;20017;-78
2022/12/02 00:16:23;;;;;;;46.50;18.83;;;;;;;4.19;84.72;102508.66;5074295;28;20019;-78
2022/12/02 00:18:49;;;;;;;45.93;19.30;;;;;;;4.21;84.37;102517.31;5096311;28;20050;-78
2022/12/02 00:21:16;;;;;;;47.03;18.97;;;;;;;4.22;85.17;102508.75;5096351;28;20016;-78
2022/12/02 00:23:41;;;;;;;45.80;19.33;;;;;;;4.24;85.49;102504.53;5087965;28;20020;-77
2022/12/02 00:26:06;;;;;;;43.60;18.55;;;;;;;4.23;84.71;102506.22;5087180;28;20480;-78
2022/12/02 00:28:32;;;;;;;46.50;18.70;;;;;;;4.22;84.91;102501.88;5075774;28;20361;-78
2022/12/02 00:30:57;;;;;;;40.17;16.40;;;;;;;4.26;85.31;102497.72;5063739;28;20083;-78
2022/12/02 00:33:22;;;;;;;46.08;18.50;;;;;;;4.21;84.76;102496.72;5064859;28;20029;-78
2022/12/02 00:35:48;;;;;;;50.03;19.70;;;;;;;4.16;84.27;102490.53;5073580;28;20024;-78
2022/12/02 00:38:13;;;;;;;44.37;19.37;;;;;;;4.16;84.67;102487.97;5067741;28;20020;-78
2022/12/02 00:40:39;;;;;;;45.80;19.07;;;;;;;4.15;84.57;102486.22;5073223;28;20016;-78
2022/12/02 00:48:31;;;;;;;41.53;17.73;;;;;;;4.20;85.04;102497.53;5072450;28;20094;-78
2022/12/02 00:50:57;;;;;;;45.97;18.53;;;;;;;4.21;84.85;102483.81;5073970;28;20028;-78
2022/12/02 00:53:22;;;;;;;45.97;19.37;;;;;;;4.19;85.13;102490.63;5077581;28;20489;-78
2022/12/02 00:55:47;;;;;;;44.73;18.77;;;;;;;4.17;84.71;102479.41;5095734;28;20020;-78
2022/12/02 00:58:12;;;;;;;43.07;16.90;;;;;;;4.19;84.57;102482.91;5093879;28;20542;-78
2022/12/02 01:00:38;;;;;;;43.90;17.77;;;;;;;4.18;84.86;102483.72;5069296;28;20025;-78
2022/12/02 01:03:03;;;;;;;45.57;17.40;;;;;;;4.17;84.34;102487.13;5080430;28;20028;-78
2022/12/02 01:05:28;;;;;;;42.20;17.43;;;;;;;4.17;84.35;102487.13;5078785;28;20496;-78
2022/12/02 01:07:54;;;;;;;43.37;17.30;;;;;;;4.15;84.35;102484.53;5073756;28;20063;-78
2022/12/02 01:10:19;;;;;;;41.13;17.43;;;;;;;4.13;84.58;102480.16;5063213;28;20036;-78
2022/12/02 01:12:44;;;;;;;40.33;17.25;;;;;;;4.14;84.62;102471.59;5073847;28;20028;-78
2022/12/02 01:15:10;;;;;;;39.30;17.17;;;;;;;4.14;84.46;102474.16;5074304;28;20479;-78
2022/12/02 01:17:35;;;;;;;41.30;17.23;;;;;;;4.14;84.37;102471.59;5072049;28;20020;-78
2022/12/02 01:20:00;;;;;;;41.80;17.30;;;;;;;4.14;84.62;102464.75;5094851;28;20040;-78
2022/12/02 01:22:26;;;;;;;42.70;18.27;;;;;;;4.13;84.29;102469.84;5077711;28;20028;-78
2022/12/02 01:24:51;;;;;;;44.13;18.70;;;;;;;4.12;83.98;102474.16;5074761;28;20059;-78
2022/12/02 01:27:16;;;;;;;48.73;19.53;;;;;;;4.09;84.39;102474.06;5079280;28;20015;-78
2022/12/02 01:29:41;;;;;;;51.27;20.30;;;;;;;4.03;83.67;102472.19;5095010;28;20024;-78
2022/12/02 01:32:07;;;;;;;49.67;19.90;;;;;;;4.02;83.67;102470.44;5094586;28;20028;-78
2022/12/02 01:34:32;;;;;;;48.80;20.70;;;;;;;4.00;83.98;102474.66;5094936;28;20093;-78
2022/12/02 01:36:57;;;;;;;47.47;19.70;;;;;;;3.98;84.08;102473.75;5059663;28;20035;-78
2022/12/02 01:39:22;;;;;;;45.53;19.33;;;;;;;3.97;84.53;102479.72;5078967;28;20024;-78
2022/12/02 01:41:48;;;;;;;47.80;19.67;;;;;;;3.99;83.78;102482.38;5074471;28;20391;-78
2022/12/02 01:44:13;;;;;;;50.73;20.17;;;;;;;3.97;83.57;102486.59;5074509;28;20056;-78
2022/12/02 01:46:39;;;;;;;44.70;17.50;;;;;;;3.92;83.72;102471.03;5057308;28;20036;-78
2022/12/02 01:49:05;;;;;;;49.53;20.10;;;;;;;3.90;83.49;102477.81;5085769;28;20035;-78
2022/12/02 01:51:30;;;;;;;47.60;18.37;;;;;;;3.84;82.85;102490.50;5085455;28;20097;-78
2022/12/02 01:53:55;;;;;;;48.83;18.43;;;;;;;3.82;83.16;102480.19;5073649;28;20032;-78
2022/12/02 01:56:20;;;;;;;51.10;19.70;;;;;;;3.79;83.13;102478.38;5065886;28;20031;-78
2022/12/02 01:58:46;;;;;;;47.43;18.10;;;;;;;3.79;83.10;102475.78;5054183;28;20086;-78
2022/12/02 02:01:31;;;;;;;46.40;18.30;;;;;;;3.79;83.59;102480.94;5093392;28;20095;-78
2022/12/02 02:03:57;;;;;;;46.40;18.17;;;;;;;3.77;83.27;102480.03;5076552;28;20116;-78
2022/12/02 02:06:27;;;;;;;46.30;17.87;;;;;;;3.77;82.70;102469.72;5074035;28;20369;-78
2022/12/02 02:08:53;;;;;;;40.37;16.33;;;;;;;3.74;82.53;102477.38;5074029;28;20048;-78
2022/12/02 02:11:18;;;;;;;44.60;17.90;;;;;;;3.71;82.46;102479.88;5079042;28;20534;-78
2022/12/02 02:13:44;;;;;;;42.00;17.60;;;;;;;3.68;81.93;102479.78;5070131;28;20031;-78
2022/12/02 02:16:12;;;;;;;42.77;16.83;;;;;;;3.66;82.19;102472.84;5053854;28;20411;-79
2022/12/02 02:18:37;;;;;;;45.03;17.43;;;;;;;3.64;81.93;102476.25;5053639;28;20067;-78
2022/12/02 02:21:02;;;;;;;43.60;16.67;;;;;;;3.66;82.42;102478.00;5063446;28;20148;-78
2022/12/02 02:23:28;;;;;;;40.80;17.57;;;;;;;3.63;81.96;102477.06;5069751;28;20028;-78
2022/12/02 02:25:56;;;;;;;40.93;17.43;;;;;;;3.63;81.62;102471.03;5060162;28;20028;-79
2022/12/02 02:28:23;;;;;;;42.43;17.07;;;;;;;3.58;81.48;102470.03;5074572;28;20058;-78
2022/12/02 02:30:51;;;;;;;40.13;16.67;;;;;;;3.55;81.36;102469.94;5067960;28;20403;-78
2022/12/02 02:33:17;;;;;;;42.13;17.67;;;;;;;3.55;81.88;102463.09;5073424;28;20037;-79
2022/12/02 02:35:44;;;;;;;45.00;18.27;;;;;;;3.58;82.10;102459.75;5071654;28;20130;-78
2022/12/02 02:38:14;;;;;;;41.67;17.20;;;;;;;3.57;82.28;102458.88;5073402;28;20111;-78
2022/12/02 02:40:40;;;;;;;39.77;17.00;;;;;;;3.57;82.18;102464.00;5073057;28;20031;-79
2022/12/02 02:43:06;;;;;;;45.03;17.93;;;;;;;3.56;82.29;102462.25;5063627;28;20549;-78
2022/12/02 02:45:35;;;;;;;41.80;16.17;;;;;;;3.55;81.78;102457.94;5071704;28;20056;-79
2022/12/02 02:48:02;;;;;;;41.87;16.63;;;;;;;3.54;81.93;102457.91;5072910;28;20035;-78
2022/12/02 02:50:28;;;;;;;39.90;16.27;;;;;;;3.52;82.25;102459.56;5073122;28;20055;-79
2022/12/02 02:52:54;;;;;;;43.40;16.87;;;;;;;3.48;81.77;102464.59;5072877;28;20070;-78
2022/12/02 02:55:23;;;;;;;40.13;16.30;;;;;;;3.46;81.08;102455.09;5074484;28;20028;-78
2022/12/02 02:57:48;;;;;;;42.47;16.40;;;;;;;3.45;81.20;102459.38;5078930;28;20032;-78
2022/12/02 03:00:16;;;;;;;39.37;15.97;;;;;;;3.39;81.37;102448.91;5070970;28;20137;-79
2022/12/02 03:02:45;;;;;;;39.73;15.87;;;;;;;3.39;81.61;102448.03;5070610;28;20368;-78
2022/12/02 03:05:11;;;;;;;42.03;16.37;;;;;;;3.37;81.50;102442.84;5056854;28;20115;-78
2022/12/02 03:07:37;;;;;;;38.13;15.40;;;;;;;3.33;81.41;102441.84;5072479;28;20115;-78
2022/12/02 03:10:04;;;;;;;39.23;15.10;;;;;;;3.32;81.62;102432.41;5072496;28;20494;-78
2022/12/02 03:12:30;;;;;;;39.07;15.40;;;;;;;3.32;81.74;102435.00;5059218;28;20036;-78
2022/12/02 03:14:56;;;;;;;43.00;17.13;;;;;;;3.31;81.63;102440.06;5070277;28;20077;-78
2022/12/02 03:17:22;;;;;;;41.63;17.07;;;;;;;3.29;81.53;102447.75;5070643;28;20043;-78
2022/12/02 03:19:47;;;;;;;42.43;16.37;;;;;;;3.29;81.85;102441.72;5070852;28;20045;-78
2022/12/02 03:22:13;;;;;;;40.37;16.03;;;;;;;3.25;81.67;102445.03;5073408;28;20384;-78
2022/12/02 03:24:38;;;;;;;40.83;16.17;;;;;;;3.25;81.93;102443.34;5069319;28;20024;-78
2022/12/02 03:27:06;;;;;;;37.97;16.30;;;;;;;3.25;82.26;102434.72;5078663;28;20505;-78
2022/12/02 03:29:32;;;;;;;44.50;18.03;;;;;;;3.27;81.97;102423.69;5071071;28;20021;-78
2022/12/02 03:31:59;;;;;;;45.33;17.70;;;;;;;3.24;81.91;102423.59;5070874;28;20036;-78
2022/12/02 03:34:25;;;;;;;41.53;16.17;;;;;;;3.25;81.81;102421.88;5072535;28;20425;-78
2022/12/02 03:36:50;;;;;;;44.10;17.67;;;;;;;3.24;82.23;102427.88;5071897;28;20115;-78
2022/12/02 03:39:16;;;;;;;41.93;16.40;;;;;;;3.23;82.38;102420.97;5072036;28;20112;-78
2022/12/02 03:41:43;;;;;;;37.60;15.33;;;;;;;3.22;82.40;102425.22;5076479;28;20024;-78
2022/12/02 03:44:09;;;;;;;43.23;16.00;;;;;;;3.21;81.88;102417.47;5075254;28;20085;-79
2022/12/02 03:46:34;;;;;;;40.87;15.37;;;;;;;3.21;82.65;102417.47;5072411;28;20029;-78
2022/12/02 03:49:01;;;;;;;40.77;15.37;;;;;;;3.21;82.87;102415.78;5070731;28;20028;-79
2022/12/02 03:51:27;;;;;;;39.07;15.97;;;;;;;3.19;82.64;102415.75;5078465;28;20119;-78
2022/12/02 03:53:52;;;;;;;38.70;15.63;;;;;;;3.18;82.57;102423.38;5073823;28;20499;-78
2022/12/02 03:56:18;;;;;;;35.20;14.50;;;;;;;3.17;82.65;102404.53;5077832;28;20032;-78
2022/12/02 03:58:48;;;;;;;37.20;15.07;;;;;;;3.16;81.80;102409.63;5067056;28;20028;-78
2022/12/02 04:01:15;;;;;;;37.67;13.93;;;;;;;3.13;81.80;102410.41;5081807;28;20031;-78
2022/12/02 04:03:41;;;;;;;36.30;13.80;;;;;;;3.12;82.08;102402.66;5077520;28;20037;-79
2022/12/02 04:06:06;;;;;;;35.20;14.47;;;;;;;3.10;81.78;102405.16;5069733;28;20039;-78
2022/12/02 04:08:31;;;;;;;36.20;14.17;;;;;;;3.09;82.07;102399.97;5068804;28;20031;-78
2022/12/02 04:10:57;;;;;;;36.53;13.57;;;;;;;3.08;82.17;102393.94;5078834;28;20031;-78
2022/12/02 04:13:22;;;;;;;34.07;12.93;;;;;;;3.07;81.88;102389.66;5089209;28;20779;-79
2022/12/02 04:15:47;;;;;;;31.40;12.30;;;;;;;3.09;82.21;102387.97;5072211;28;20024;-78
2022/12/02 04:18:13;;;;;;;33.37;12.60;;;;;;;3.06;81.94;102395.63;5085474;28;20047;-78
2022/12/02 04:20:38;;;;;;;36.60;13.90;;;;;;;3.05;81.39;102396.44;5069143;28;20028;-78
2022/12/02 04:23:03;;;;;;;34.20;14.13;;;;;;;3.05;81.71;102396.44;5079621;28;20462;-78
2022/12/02 04:25:28;;;;;;;35.40;13.70;;;;;;;3.05;81.90;102401.59;5069041;28;20427;-78
2022/12/02 04:27:54;;;;;;;32.67;12.87;;;;;;;3.06;81.81;102403.34;5084412;28;20024;-78
2022/12/02 04:30:19;;;;;;;33.67;13.00;;;;;;;3.06;81.84;102407.59;5068615;28;20491;-78
2022/12/02 04:32:44;;;;;;;32.33;12.90;;;;;;;3.03;81.81;102398.94;5071982;28;20036;-78
2022/12/02 04:35:09;;;;;;;33.93;13.10;;;;;;;3.02;81.42;102399.78;5069345;28;20028;-79
2022/12/02 04:37:35;;;;;;;32.80;12.33;;;;;;;3.01;81.88;102400.59;5069349;28;20080;-78
2022/12/02 04:40:00;;;;;;;33.13;12.90;;;;;;;3.01;81.56;102395.47;5084810;28;20048;-78
2022/12/02 04:42:25;;;;;;;34.27;13.47;;;;;;;3.01;81.47;102394.59;5070105;28;20052;-78
2022/12/02 04:44:51;;;;;;;34.23;13.33;;;;;;;3.01;81.70;102398.03;5077239;28;20835;-78
2022/12/02 04:47:16;;;;;;;35.13;13.77;;;;;;;3.00;81.11;102391.13;5058469;28;20127;-78
2022/12/02 04:49:41;;;;;;;30.20;13.03;;;;;;;2.97;81.51;102387.63;5064621;28;20027;-78
2022/12/02 04:52:07;;;;;;;33.47;12.90;;;;;;;2.95;81.37;102382.44;5086551;28;20054;-78
2022/12/02 04:54:32;;;;;;;31.27;12.67;;;;;;;2.94;81.57;102378.13;5068193;28;20032;-78
2022/12/02 04:56:57;;;;;;;34.23;12.77;;;;;;;2.94;81.57;102377.22;5075570;28;20070;-78
2022/12/02 04:59:23;;;;;;;32.50;12.50;;;;;;;2.93;81.45;102378.94;5083210;28;20041;-78
2022/12/02 05:01:48;;;;;;;28.50;11.70;;;;;;;2.92;81.77;102374.63;5073759;28;20028;-78
2022/12/02 05:04:14;;;;;;;32.40;11.50;;;;;;;2.88;81.28;102363.38;5075348;28;20039;-78
2022/12/02 05:06:39;;;;;;;28.70;11.63;;;;;;;2.91;81.17;102367.75;5087176;28;20060;-78
2022/12/02 05:09:04;;;;;;;30.37;11.50;;;;;;;2.89;81.33;102359.09;5080281;28;20032;-78
2022/12/02 05:11:29;;;;;;;28.03;12.00;;;;;;;2.88;81.26;102363.38;5074888;28;20040;-78
2022/12/02 05:13:55;;;;;;;27.93;11.90;;;;;;;2.90;81.27;102352.28;5077419;28;20028;-78
2022/12/02 05:16:20;;;;;;;27.33;10.73;;;;;;;2.92;80.91;102359.19;5077204;28;20028;-78
2022/12/02 05:18:45;;;;;;;28.93;11.43;;;;;;;2.92;81.17;102358.31;5068845;28;20052;-78
2022/12/02 05:21:11;;;;;;;29.73;10.73;;;;;;;2.92;80.97;102358.31;5069779;28;20047;-78
2022/12/02 05:23:36;;;;;;;29.30;10.37;;;;;;;2.89;81.34;102364.25;5071897;28;20029;-78
2022/12/02 05:26:01;;;;;;;27.50;10.57;;;;;;;2.91;81.21;102372.88;5078566;28;20047;-78
2022/12/02 05:28:27;;;;;;;26.60;10.97;;;;;;;2.90;81.41;102365.13;5084384;28;20367;-78
2022/12/02 05:30:52;;;;;;;27.43;10.80;;;;;;;2.88;81.18;102353.09;5075155;28;20119;-78
2022/12/02 05:33:17;;;;;;;30.00;11.00;;;;;;;2.91;81.35;102357.44;5088714;28;20464;-78
2022/12/02 05:35:42;;;;;;;27.23;10.73;;;;;;;2.87;81.14;102353.94;5073209;28;20024;-78
2022/12/02 05:38:08;;;;;;;32.80;12.23;;;;;;;2.87;81.06;102351.34;5082417;28;20093;-78
2022/12/02 05:40:33;;;;;;;31.43;11.53;;;;;;;2.85;81.46;102347.88;5072588;28;20075;-78
2022/12/02 05:43:15;;;;;;;31.70;11.80;;;;;;;2.87;81.64;102355.59;5075878;28;20032;-78
2022/12/02 05:45:40;;;;;;;29.57;11.47;;;;;;;2.87;81.61;102347.91;5070370;28;20047;-78
2022/12/02 05:48:10;;;;;;;29.20;11.70;;;;;;;2.87;81.33;102359.06;5074389;28;20442;-78
2022/12/02 05:50:35;;;;;;;32.43;11.33;;;;;;;2.89;81.58;102353.97;5072296;28;20035;-79
2022/12/02 05:53:01;;;;;;;30.80;11.67;;;;;;;2.87;81.41;102361.63;5073651;28;20028;-79
2022/12/02 05:55:26;;;;;;;31.77;11.13;;;;;;;2.86;81.81;102352.19;5072545;28;20024;-79
2022/12/02 05:57:58;;;;;;;28.37;11.07;;;;;;;2.82;81.22;102360.63;5073409;28;20028;-79
2022/12/02 06:00:23;;;;;;;28.20;10.13;;;;;;;2.83;81.99;102364.94;5071154;28;20379;-78
2022/12/02 06:02:51;;;;;;;29.73;10.40;;;;;;;2.78;81.58;102363.91;5068850;28;20031;-79
2022/12/02 06:05:22;;;;;;;28.53;10.53;;;;;;;2.78;81.42;102355.34;5072722;28;20032;-79
2022/12/02 06:07:51;;;;;;;29.60;10.73;;;;;;;2.75;81.48;102356.09;5070383;28;20090;-79
2022/12/02 06:10:28;;;;;;;29.63;11.53;;;;;;;2.73;81.67;102357.78;5071715;28;20064;-79
2022/12/02 06:12:57;;;;;;;31.50;11.50;;;;;;;2.74;82.06;102349.19;5070401;28;20070;-78
2022/12/02 06:15:22;;;;;;;28.37;11.17;;;;;;;2.70;81.56;102350.81;5063293;28;20017;-79
2022/12/02 06:17:48;;;;;;;27.03;11.37;;;;;;;2.70;81.65;102350.81;5071579;28;20056;-79
2022/12/02 06:20:27;;;;;;;26.63;10.37;;;;;;;2.66;81.57;102350.69;5073511;28;20048;-78
2022/12/02 06:22:52;;;;;;;27.33;10.93;;;;;;;2.62;81.92;102354.84;5070910;28;20044;-79
2022/12/02 06:25:23;;;;;;;28.43;10.50;;;;;;;2.62;81.92;102353.97;5069197;28;20059;-79
2022/12/02 06:27:49;;;;;;;27.35;10.05;;;;;;;2.64;82.22;102347.19;5073178;28;20020;-79
2022/12/02 06:30:14;;;;;;;26.27;10.27;;;;;;;2.63;82.16;102348.00;5072650;28;20031;-79
2022/12/02 06:32:46;;;;;;;27.20;11.07;;;;;;;2.64;81.99;102349.75;5073042;28;20379;-79
2022/12/02 06:35:30;;;;;;;27.52;10.80;;;;;;;2.62;82.11;102346.25;5071674;28;20031;-79
2022/12/02 06:38:07;;;;;;;26.17;10.50;;;;;;;2.64;82.25;102345.50;5073526;28;20031;-79
2022/12/02 06:40:35;;;;;;;27.47;10.43;;;;;;;2.65;82.29;102346.38;5072984;28;20040;-79
2022/12/02 06:43:06;;;;;;;25.83;10.23;;;;;;;2.65;82.30;102347.22;5073278;28;20399;-79
2022/12/02 06:45:33;;;;;;;25.10;9.63;;;;;;;2.65;82.30;102342.09;5072891;28;20020;-79
2022/12/02 06:48:00;;;;;;;27.03;10.47;;;;;;;2.66;82.34;102346.41;5071449;28;20297;-79
2022/12/02 06:50:32;;;;;;;24.20;9.97;;;;;;;2.67;82.61;102347.28;5069592;28;20190;-79
2022/12/02 06:53:21;;;;;;;29.23;10.63;;;;;;;2.69;83.05;102343.06;5071329;28;20055;-79
2022/12/02 06:55:48;;;;;;;29.20;10.23;;;;;;;2.68;82.65;102343.91;5087085;28;20536;-79
2022/12/02 06:58:38;;;;;;;25.13;9.67;;;;;;;2.71;82.56;102354.28;5074835;28;20028;-79
2022/12/02 07:01:06;;;;;;;24.87;10.30;;;;;;;2.71;82.90;102339.72;5069246;28;20039;-79
2022/12/02 07:03:35;;;;;;;27.97;10.30;;;;;;;2.71;83.07;102344.00;5062170;28;20025;-79
2022/12/02 07:06:23;;;;;;;25.27;9.43;;;;;;;2.70;82.80;102345.69;5083596;28;20433;-79
2022/12/02 07:08:49;;;;;;;24.27;9.83;;;;;;;2.71;82.91;102349.13;5055174;28;20032;-79
2022/12/02 07:11:48;;;;;;;28.37;10.60;;;;;;;2.72;83.31;102356.03;5067769;28;20029;-79
2022/12/02 07:14:17;;;;;;;23.80;9.53;;;;;;;2.72;82.95;102361.16;5052116;28;20067;-79
2022/12/02 07:16:42;;;;;;;24.80;10.10;;;;;;;2.69;82.58;102356.78;5052987;28;20032;-79
2022/12/02 07:19:15;;;;;;;24.77;9.43;;;;;;;2.69;82.96;102355.91;5070869;28;20053;-79
2022/12/02 07:21:41;;;;;;;27.00;9.90;;;;;;;2.68;82.55;102355.03;5064105;28;20067;-79
2022/12/02 07:24:12;;;;;;;28.27;10.17;;;;;;;2.68;82.46;102354.19;5052487;28;20021;-79
2022/12/02 07:26:37;;;;;;;27.20;10.52;;;;;;;2.67;82.62;102357.56;5052770;28;20107;-79
2022/12/02 07:29:04;;;;;;;24.07;9.60;;;;;;;2.66;82.57;102355.81;5052151;28;20057;-78
2022/12/02 07:31:30;;;;;;;23.47;9.13;;;;;;;2.66;82.33;102353.25;5053141;28;20021;-79
2022/12/02 07:33:57;;;;;;;25.60;9.43;;;;;;;2.67;82.30;102355.00;5052739;28;20021;-79
2022/12/02 07:36:22;;;;;;;22.60;9.07;;;;;;;2.68;82.94;102354.19;5068086;28;20391;-79
2022/12/02 07:38:47;;;;;;;24.43;9.63;;;;;;;2.71;83.05;102354.28;5072735;28;20040;-79
2022/12/02 07:41:13;;;;;;;25.03;9.60;;;;;;;2.72;82.42;102350.88;5069721;28;20481;-79
2022/12/02 07:43:38;;;;;;;23.83;9.60;;;;;;;2.72;82.56;102356.03;5072682;28;20016;-79
2022/12/02 07:46:04;;;;;;;22.13;8.73;;;;;;;2.73;82.76;102352.63;5072556;28;20024;-79
2022/12/02 07:48:29;;;;;;;23.90;9.60;;;;;;;2.73;82.38;102355.19;5061914;28;20032;-79
2022/12/02 07:50:55;;;;;;;24.83;9.77;;;;;;;2.72;82.35;102356.03;5064752;28;20032;-79
2022/12/02 07:53:20;;;;;;;24.17;9.67;;;;;;;2.72;82.56;102356.03;5072487;28;20016;-79
2022/12/02 07:55:45;;;;;;;26.37;9.37;;;;;;;2.72;82.65;102361.16;5072510;28;20380;-79
2022/12/02 07:58:11;;;;;;;24.00;9.33;;;;;;;2.71;82.56;102354.28;5072531;28;20104;-79
2022/12/02 08:00:36;;;;;;;25.33;9.83;;;;;;;2.72;82.59;102356.03;5072397;28;20052;-79
2022/12/02 08:03:01;;;;;;;26.00;10.43;;;;;;;2.71;82.71;102354.28;5059721;28;20052;-79
2022/12/02 08:05:27;;;;;;;24.40;9.90;;;;;;;2.72;83.11;102356.03;5051706;28;20048;-79
2022/12/02 08:07:53;;;;;;;26.40;10.93;;;;;;;2.72;83.01;102356.03;5052464;28;20100;-79
2022/12/02 08:10:18;;;;;;;27.50;10.13;;;;;;;2.72;83.00;102356.88;5067303;28;20388;-79
2022/12/02 08:12:44;;;;;;;29.87;11.10;;;;;;;2.71;83.16;102359.41;5064094;28;20480;-79
2022/12/02 08:15:11;;;;;;;30.27;11.37;;;;;;;2.69;83.27;102361.91;5052338;28;20029;-79
2022/12/02 08:17:37;;;;;;;30.57;11.40;;;;;;;2.66;83.62;102355.81;5052268;28;20467;-79
2022/12/02 08:20:04;;;;;;;29.83;11.53;;;;;;;2.66;83.56;102358.38;5052128;28;20077;-79
2022/12/02 08:22:29;;;;;;;27.50;11.13;;;;;;;2.61;84.09;102354.78;5053905;28;20069;-79
2022/12/02 08:24:55;;;;;;;30.53;11.80;;;;;;;2.61;83.76;102358.25;5054512;28;20359;-79
2022/12/02 08:27:21;;;;;;;28.53;11.73;;;;;;;2.56;83.98;102355.50;5071217;28;20024;-79
2022/12/02 08:29:48;;;;;;;30.83;11.60;;;;;;;2.55;84.07;102358.94;5075794;28;20024;-79
2022/12/02 08:32:14;;;;;;;29.33;11.60;;;;;;;2.55;84.29;102358.94;5071257;28;20024;-79
2022/12/02 08:34:40;;;;;;;26.03;11.20;;;;;;;2.56;84.66;102355.50;5055952;28;20476;-79
2022/12/02 08:37:05;;;;;;;27.17;11.60;;;;;;;2.55;84.37;102358.94;5055578;28;20039;-79
2022/12/02 08:39:30;;;;;;;29.00;11.07;;;;;;;2.54;84.46;102353.72;5055755;28;20091;-79
2022/12/02 08:41:55;;;;;;;27.63;10.73;;;;;;;2.54;84.79;102346.91;5063829;28;20024;-79
2022/12/02 08:44:21;;;;;;;27.23;10.93;;;;;;;2.52;84.65;102351.13;5074320;28;20028;-79
2022/12/02 08:46:46;;;;;;;25.73;10.30;;;;;;;2.52;85.34;102353.69;5072961;28;20024;-79
2022/12/02 08:49:11;;;;;;;24.67;10.07;;;;;;;2.54;84.78;102356.28;5067092;28;20032;-79
2022/12/02 08:51:37;;;;;;;23.83;10.03;;;;;;;2.53;85.42;102360.56;5085197;28;20035;-79
2022/12/02 08:54:02;;;;;;;26.60;10.63;;;;;;;2.52;85.17;102355.38;5073318;28;20028;-79
2022/12/02 08:56:27;;;;;;;25.77;9.43;;;;;;;2.50;85.77;102355.34;5081934;28;20044;-79
2022/12/02 08:58:53;;;;;;;25.73;9.17;;;;;;;2.52;85.65;102347.66;5068107;28;20075;-79
2022/12/02 09:01:18;;;;;;;21.63;9.43;;;;;;;2.54;85.76;102349.47;5086845;28;20028;-79
2022/12/02 09:03:43;;;;;;;22.83;8.93;;;;;;;2.56;85.77;102350.38;5091595;28;20020;-79
2022/12/02 09:06:08;;;;;;;22.40;8.90;;;;;;;2.57;85.99;102359.81;5076275;28;20021;-79
2022/12/02 09:08:34;;;;;;;23.50;9.57;;;;;;;2.58;85.75;102355.56;5068096;28;20037;-79
2022/12/02 09:10:59;;;;;;;22.87;9.50;;;;;;;2.58;85.92;102353.00;5063884;28;20386;-79
2022/12/02 09:13:24;;;;;;;24.23;9.23;;;;;;;2.59;86.16;102352.19;5079556;28;20060;-79
2022/12/02 09:15:50;;;;;;;26.23;10.70;;;;;;;2.61;85.99;102353.09;5087881;28;20031;-79
2022/12/02 09:18:15;;;;;;;24.47;9.93;;;;;;;2.60;86.37;102358.19;5077859;28;20057;-79
2022/12/02 09:20:41;;;;;;;24.67;10.30;;;;;;;2.60;86.57;102358.19;5074277;28;20031;-79
2022/12/02 09:23:06;;;;;;;25.70;10.03;;;;;;;2.60;86.22;102355.63;5072611;28;20078;-79
2022/12/02 09:25:31;;;;;;;22.53;9.10;;;;;;;2.57;86.23;102349.56;5078284;28;20024;-78
2022/12/02 09:27:57;;;;;;;21.93;9.17;;;;;;;2.53;86.38;102345.16;5076604;28;20483;-79
2022/12/02 09:30:22;;;;;;;22.20;8.83;;;;;;;2.52;86.32;102353.69;5076347;28;20096;-79
2022/12/02 09:32:47;;;;;;;22.40;8.87;;;;;;;2.53;86.43;102341.69;5073180;28;20484;-79
2022/12/02 09:35:12;;;;;;;22.13;8.90;;;;;;;2.57;86.37;102341.84;5074500;28;20028;-79
2022/12/02 09:37:37;;;;;;;24.47;9.47;;;;;;;2.60;86.64;102342.75;5071471;28;20023;-79
2022/12/02 09:40:04;;;;;;;19.87;8.40;;;;;;;2.57;86.94;102339.28;5078495;28;20104;-79
2022/12/02 09:42:29;;;;;;;25.30;8.70;;;;;;;2.58;86.81;102337.59;5073108;28;20035;-79
2022/12/02 09:44:57;;;;;;;23.40;9.47;;;;;;;2.57;86.43;102331.56;5074700;28;20039;-79
2022/12/02 09:47:23;;;;;;;21.23;8.50;;;;;;;2.55;86.63;102332.34;5075071;28;20028;-79
2022/12/02 09:49:48;;;;;;;22.93;9.30;;;;;;;2.55;86.91;102329.78;5076569;28;20037;-79
2022/12/02 09:52:19;;;;;;;26.00;9.90;;;;;;;2.57;86.63;102330.72;5075751;28;20460;-79
2022/12/02 09:54:45;;;;;;;22.07;8.87;;;;;;;2.54;86.88;102336.63;5077022;28;20039;-79
2022/12/02 09:57:13;;;;;;;25.90;9.70;;;;;;;2.52;87.10;102333.13;5073007;28;20454;-79
2022/12/02 09:59:39;;;;;;;27.43;9.80;;;;;;;2.52;87.18;102334.81;5076039;28;20029;-79
2022/12/02 10:02:05;;;;;;;26.73;9.83;;;;;;;2.52;86.83;102332.25;5075755;28;20043;-79
2022/12/02 10:04:30;;;;;;;28.30;9.83;;;;;;;2.52;87.13;102328.00;5076172;28;20500;-79
2022/12/02 10:06:56;;;;;;;30.67;9.97;;;;;;;2.52;87.24;102327.13;5076742;28;20589;-79
2022/12/02 10:09:27;;;;;;;26.33;10.27;;;;;;;2.54;87.08;102328.03;5075321;28;20037;-79
2022/12/02 10:11:52;;;;;;;27.33;10.17;;;;;;;2.53;86.77;102323.72;5070797;28;20028;-79
2022/12/02 10:14:18;;;;;;;26.47;9.53;;;;;;;2.54;87.06;102323.78;5074671;28;20438;-79
2022/12/02 10:16:43;;;;;;;29.13;10.30;;;;;;;2.57;86.87;102326.44;5073619;28;20059;-79
2022/12/02 10:19:15;;;;;;;29.27;10.47;;;;;;;2.61;87.07;102331.66;5078333;28;20045;-79
2022/12/02 10:21:40;;;;;;;29.75;10.60;;;;;;;2.63;86.95;102330.03;5071991;28;20056;-79
2022/12/02 10:24:12;;;;;;;30.20;10.80;;;;;;;2.63;86.92;102324.88;5073330;28;20467;-79
2022/12/02 10:26:47;;;;;;;34.85;11.68;;;;;;;2.65;87.02;102328.38;5070843;28;20051;-79
2022/12/02 10:29:31;;;;;;;30.47;11.23;;;;;;;2.66;86.68;102319.84;5062952;28;20055;-77
2022/12/02 10:32:02;;;;;;;35.43;11.87;;;;;;;2.67;86.45;102327.59;5075663;28;20024;-77
2022/12/02 10:34:29;;;;;;;35.53;12.20;;;;;;;2.70;86.44;102319.13;5075034;28;20173;-77
2022/12/02 10:36:55;;;;;;;43.17;13.67;;;;;;;2.72;86.40;102315.75;5074786;28;20020;-78
2022/12/02 10:39:22;;;;;;;32.53;11.47;;;;;;;2.76;86.52;102311.56;5057834;28;20094;-78
2022/12/02 10:42:03;;;;;;;35.07;13.03;;;;;;;2.75;85.95;102309.84;5074634;28;20038;-78
2022/12/02 10:44:29;;;;;;;35.80;11.63;;;;;;;2.80;86.31;102308.28;5072131;28;20471;-77
2022/12/02 10:47:18;;;;;;;35.97;11.63;;;;;;;2.83;86.29;102313.53;5075232;28;20107;-77
2022/12/02 10:49:57;;;;;;;33.80;11.40;;;;;;;2.80;85.66;102313.44;5073716;28;20028;-77
2022/12/02 10:52:27;;;;;;;37.17;12.17;;;;;;;2.77;85.56;102310.75;5071191;28;20476;-78
2022/12/02 10:54:54;;;;;;;39.17;12.67;;;;;;;2.77;86.11;102310.75;5075311;28;20028;-77
2022/12/02 10:57:23;;;;;;;38.50;12.30;;;;;;;2.76;85.70;102310.72;5072947;28;20078;-78
2022/12/02 10:59:50;;;;;;;37.00;11.63;;;;;;;2.75;85.75;102303.84;5071226;28;20105;-78
2022/12/02 11:02:30;;;;;;;36.30;12.03;;;;;;;2.74;85.39;102297.81;5077823;28;20031;-77
2022/12/02 11:05:00;;;;;;;40.23;12.50;;;;;;;2.78;85.73;102302.22;5070239;28;20040;-77
2022/12/02 11:07:26;;;;;;;38.73;12.43;;;;;;;2.76;85.49;102303.88;5071458;28;20525;-77
2022/12/02 11:09:54;;;;;;;36.30;12.27;;;;;;;2.79;85.27;102293.69;5075982;28;20016;-78
2022/12/02 11:12:34;;;;;;;36.70;11.53;;;;;;;2.81;85.51;102299.75;5074433;28;20468;-77
2022/12/02 11:15:03;;;;;;;40.63;13.27;;;;;;;2.83;85.27;102303.25;5070867;28;20025;-78
2022/12/02 11:17:48;;;;;;;36.37;11.83;;;;;;;2.86;85.42;102298.19;5074675;28;20035;-78
2022/12/02 11:20:42;;;;;;;34.67;10.73;;;;;;;2.90;85.19;102290.59;5071134;28;20056;-77
2022/12/02 11:23:22;;;;;;;35.63;12.03;;;;;;;2.91;85.60;102300.91;5069220;28;20479;-77
2022/12/02 11:25:48;;;;;;;38.07;11.60;;;;;;;2.89;84.94;102294.84;5072047;28;20110;-78